createdAt,value
2023-08-09T00:02:20.226Z,100942.84
2023-08-09T00:04:48.556Z,100944.91
2023-08-09T00:07:15.517Z,100943.50
2023-08-09T00:09:42.588Z,100938.41
2023-08-09T00:12:09.569Z,100937.59
2023-08-09T00:14:36.553Z,100936.78
2023-08-09T00:17:04.005Z,100935.75
2023-08-09T00:19:31.517Z,100930.41
2023-08-09T00:21:59.905Z,100928.78
2023-08-09T00:24:26.897Z,100938.63
2023-08-09T00:26:53.868Z,100932.47
2023-08-09T00:29:20.852Z,100932.47
2023-08-09T00:31:47.925Z,100933.53
2023-08-09T00:34:14.935Z,100935.59
2023-08-09T00:36:42.005Z,100933.38
2023-08-09T00:39:10.360Z,100937.88
2023-08-09T00:41:37.392Z,100930.13
2023-08-09T00:44:04.594Z,100939.72
2023-08-09T00:46:31.655Z,100939.72
2023-08-09T00:48:58.913Z,100939.16
2023-08-09T00:51:26.002Z,100939.97
2023-08-09T00:53:53.150Z,100941.63
2023-08-09T00:56:21.676Z,100937.31
2023-08-09T00:58:48.735Z,100948.56
2023-08-09T01:01:15.867Z,100951.22
2023-08-09T01:03:44.859Z,100951.47
2023-08-09T01:06:24.040Z,100961.53
2023-08-09T01:09:01.825Z,100954.81
2023-08-09T01:11:41.961Z,100951.75
2023-08-09T01:14:13.016Z,100948.25
2023-08-09T01:16:41.258Z,100952.06
2023-08-09T01:19:26.650Z,100950.19
2023-08-09T01:21:58.044Z,100949.75
2023-08-09T01:24:27.216Z,100953.00
2023-08-09T01:26:54.234Z,100951.16
2023-08-09T01:29:21.257Z,100948.50
2023-08-09T01:31:48.261Z,100958.16
2023-08-09T01:34:16.500Z,100957.91
2023-08-09T01:36:48.660Z,100961.84
2023-08-09T01:39:23.496Z,100958.34
2023-08-09T01:41:52.656Z,100959.16
2023-08-09T01:44:21.146Z,100969.25
2023-08-09T01:46:48.747Z,100965.75
2023-08-09T01:49:22.227Z,100960.06
2023-08-09T01:51:49.719Z,100965.03
2023-08-09T01:54:18.430Z,100963.59
2023-08-09T01:56:46.258Z,100960.13
2023-08-09T01:59:15.781Z,100964.66
2023-08-09T02:01:42.967Z,100965.44
2023-08-09T02:04:10.267Z,100965.84
2023-08-09T02:06:39.518Z,100968.66
2023-08-09T02:09:07.900Z,100967.16
2023-08-09T02:11:34.952Z,100976.34
2023-08-09T02:14:02.026Z,100974.16
2023-08-09T02:16:30.483Z,100975.41
2023-08-09T02:18:57.473Z,100969.91
2023-08-09T02:21:24.496Z,100975.09
2023-08-09T02:23:51.479Z,100974.13
2023-08-09T02:26:19.680Z,100972.94
2023-08-09T02:28:47.094Z,100977.09
2023-08-09T02:31:14.131Z,100982.03
2023-08-09T02:33:42.792Z,100984.94
2023-08-09T02:36:09.801Z,100979.00
2023-08-09T02:38:36.962Z,100988.63
2023-08-09T02:41:07.133Z,100987.00
2023-08-09T02:43:34.119Z,100983.72
2023-08-09T02:46:01.105Z,100977.78
2023-08-09T02:48:28.465Z,100992.78
2023-08-09T02:50:56.966Z,100987.44
2023-08-09T02:53:34.612Z,100997.69
2023-08-09T02:56:01.799Z,100989.50
2023-08-09T02:58:28.788Z,100992.94
2023-08-09T03:00:55.749Z,100994.81
2023-08-09T03:03:22.858Z,100994.81
2023-08-09T03:05:50.522Z,101002.00
2023-08-09T03:08:18.853Z,100997.47
2023-08-09T03:10:47.557Z,101001.59
2023-08-09T03:13:15.730Z,101008.78
2023-08-09T03:15:42.755Z,101011.00
2023-08-09T03:18:10.717Z,101013.66
2023-08-09T03:20:38.335Z,101003.81
2023-08-09T03:23:05.834Z,101016.34
2023-08-09T03:25:35.314Z,101015.72
2023-08-09T03:28:02.275Z,101015.09
2023-08-09T03:30:29.330Z,101020.25
2023-08-09T03:32:56.329Z,101017.59
2023-08-09T03:35:23.391Z,101014.09
2023-08-09T03:37:50.856Z,101017.34
2023-08-09T03:40:17.890Z,101019.78
2023-08-09T03:42:46.376Z,101031.66
2023-08-09T03:45:13.579Z,101023.44
2023-08-09T03:47:40.897Z,101029.16
2023-08-09T03:50:08.736Z,101027.88
2023-08-09T03:52:35.785Z,101037.53
2023-08-09T03:55:02.990Z,101036.50
2023-08-09T03:57:30.172Z,101031.19
2023-08-09T03:59:58.530Z,101040.19
2023-08-09T04:02:25.883Z,101044.94
2023-08-09T04:04:52.940Z,101049.69
2023-08-09T04:07:20.672Z,101054.41
2023-08-09T04:09:47.747Z,101048.47
2023-08-09T04:12:14.728Z,101050.34
2023-08-09T04:14:41.724Z,101050.53
2023-08-09T04:17:10.045Z,101066.75
2023-08-09T04:19:37.052Z,101057.34
2023-08-09T04:22:05.472Z,101055.69
2023-08-09T04:24:32.543Z,101063.69
2023-08-09T04:27:00.897Z,101062.69
2023-08-09T04:29:28.437Z,101062.44
2023-08-09T04:31:55.395Z,101073.94
2023-08-09T04:34:24.532Z,101077.66
2023-08-09T04:36:55.764Z,101083.00
2023-08-09T04:39:24.918Z,101076.84
2023-08-09T04:41:51.925Z,101081.34
2023-08-09T04:44:18.939Z,101084.25
2023-08-09T04:46:45.894Z,101087.91
2023-08-09T04:49:13.299Z,101091.41
2023-08-09T04:51:41.754Z,101092.00
2023-08-09T04:54:08.703Z,101087.50
2023-08-09T04:56:35.692Z,101090.34
2023-08-09T04:59:02.682Z,101088.31
2023-08-09T05:01:29.701Z,101086.25
2023-08-09T05:03:56.821Z,101088.09
2023-08-09T05:06:23.990Z,101093.19
2023-08-09T05:08:52.291Z,101099.13
2023-08-09T05:11:19.277Z,101103.00
2023-08-09T05:13:46.542Z,101102.34
2023-08-09T05:16:13.629Z,101101.69
2023-08-09T05:18:40.603Z,101109.47
2023-08-09T05:21:07.616Z,101107.63
2023-08-09T05:23:34.812Z,101116.81
2023-08-09T05:26:03.149Z,101118.03
2023-08-09T05:28:30.124Z,101119.63
2023-08-09T05:30:57.160Z,101115.53
2023-08-09T05:33:24.181Z,101119.38
2023-08-09T05:35:51.380Z,101116.41
2023-08-09T05:38:18.322Z,101109.19
2023-08-09T05:40:45.318Z,101116.53
2023-08-09T05:43:14.239Z,101114.22
2023-08-09T05:45:42.866Z,101117.28
2023-08-09T05:48:09.866Z,101109.03
2023-08-09T05:50:36.850Z,101112.88
2023-08-09T05:53:04.306Z,101123.72
2023-08-09T05:55:31.291Z,101124.91
2023-08-09T05:57:58.254Z,101131.22
2023-08-09T06:00:26.599Z,101137.56
2023-08-09T06:02:54.001Z,101131.97
2023-08-09T06:05:24.854Z,101142.00
2023-08-09T06:07:51.872Z,101143.19
2023-08-09T06:10:20.516Z,101150.16
2023-08-09T06:12:48.027Z,101151.13
2023-08-09T06:15:15.226Z,101155.81
2023-08-09T06:17:43.790Z,101158.19
2023-08-09T06:20:15.132Z,101163.19
2023-08-09T06:22:42.717Z,101161.69
2023-08-09T06:25:10.376Z,101159.19
2023-08-09T06:27:37.769Z,101167.34
2023-08-09T06:30:07.204Z,101167.25
2023-08-09T06:32:34.409Z,101170.88
2023-08-09T06:35:02.995Z,101166.25
2023-08-09T06:37:30.029Z,101167.00
2023-08-09T06:39:58.806Z,101173.09
2023-08-09T06:42:25.806Z,101163.94
2023-08-09T06:44:52.799Z,101178.63
2023-08-09T06:47:19.780Z,101178.88
2023-08-09T06:49:46.737Z,101173.44
2023-08-09T06:52:15.099Z,101176.59
2023-08-09T06:54:42.105Z,101181.38
2023-08-09T06:57:09.220Z,101182.09
2023-08-09T06:59:36.259Z,101182.81
2023-08-09T07:02:03.306Z,101182.69
2023-08-09T07:04:30.413Z,101187.50
2023-08-09T07:06:57.465Z,101189.84
2023-08-09T07:09:25.868Z,101194.25
2023-08-09T07:11:52.869Z,101201.81
2023-08-09T07:14:19.860Z,101195.78
2023-08-09T07:16:46.813Z,101194.00
2023-08-09T07:19:13.785Z,101201.69
2023-08-09T07:21:41.429Z,101206.72
2023-08-09T07:24:08.392Z,101209.00
2023-08-09T07:26:36.736Z,101209.00
2023-08-09T07:29:04.263Z,101214.94
2023-08-09T07:31:31.818Z,101217.81
2023-08-09T07:33:58.787Z,101222.00
2023-08-09T07:36:28.162Z,101218.97
2023-08-09T07:38:55.407Z,101228.97
2023-08-09T07:41:22.436Z,101221.59
2023-08-09T07:43:50.786Z,101227.16
2023-08-09T07:46:17.900Z,101228.97
2023-08-09T07:48:45.016Z,101239.09
2023-08-09T07:51:13.176Z,101229.63
2023-08-09T07:53:41.241Z,101238.34
2023-08-09T07:56:09.877Z,101243.38
2023-08-09T07:58:36.812Z,101241.72
2023-08-09T08:01:05.330Z,101247.81
2023-08-09T08:03:32.517Z,101247.81
2023-08-09T08:06:00.447Z,101263.34
2023-08-09T08:08:28.938Z,101258.88
2023-08-09T08:10:56.006Z,101268.50
2023-08-09T08:13:23.437Z,101270.31
2023-08-09T08:15:51.542Z,101267.28
2023-08-09T08:18:20.041Z,101262.81
2023-08-09T08:20:47.061Z,101261.06
2023-08-09T08:23:14.021Z,101264.69
2023-08-09T08:25:41.076Z,101272.88
2023-08-09T08:28:08.117Z,101281.41
2023-08-09T08:30:35.217Z,101280.06
2023-08-09T08:33:02.951Z,101274.03
2023-08-09T08:35:37.393Z,101273.56
2023-08-09T08:38:04.701Z,101268.06
2023-08-09T08:40:32.744Z,101272.50
2023-08-09T08:43:00.398Z,101273.97
2023-08-09T08:45:27.669Z,101268.75
2023-08-09T08:47:54.709Z,101279.13
2023-08-09T08:50:24.944Z,101273.88
2023-08-09T08:52:54.421Z,101272.94
2023-08-09T08:55:21.556Z,101275.13
2023-08-09T08:57:48.613Z,101266.25
2023-08-09T09:00:26.748Z,101271.50
2023-08-09T09:02:54.748Z,101281.91
2023-08-09T09:05:21.881Z,101285.81
2023-08-09T09:07:51.692Z,101277.84
2023-08-09T09:10:22.431Z,101282.69
2023-08-09T09:12:51.975Z,101279.22
2023-08-09T09:15:19.333Z,101278.34
2023-08-09T09:17:47.476Z,101283.13
2023-08-09T09:20:20.117Z,101274.72
2023-08-09T09:22:47.987Z,101269.38
2023-08-09T09:25:18.533Z,101272.94
2023-08-09T09:27:53.331Z,101286.75
2023-08-09T09:30:25.182Z,101279.28
2023-08-09T09:32:58.763Z,101285.31
2023-08-09T09:35:29.276Z,101292.81
2023-08-09T09:38:01.400Z,101295.06
2023-08-09T09:40:36.184Z,101285.44
2023-08-09T09:43:07.572Z,101288.78
2023-08-09T09:45:38.057Z,101285.78
2023-08-09T09:48:14.904Z,101288.13
2023-08-09T09:50:43.007Z,101291.25
2023-08-09T09:53:14.494Z,101290.94
2023-08-09T09:55:41.989Z,101290.63
2023-08-09T09:58:10.538Z,101292.50
2023-08-09T10:00:42.935Z,101290.41
2023-08-09T10:03:11.995Z,101305.25
2023-08-09T10:05:44.394Z,101305.22
2023-08-09T10:08:15.123Z,101309.00
2023-08-09T10:10:45.523Z,101306.38
2023-08-09T10:13:19.879Z,101308.22
2023-08-09T10:15:54.542Z,101306.22
2023-08-09T10:18:30.731Z,101299.63
2023-08-09T10:21:01.426Z,101314.78
2023-08-09T10:23:31.199Z,101310.94
2023-08-09T10:25:59.566Z,101324.41
2023-08-09T10:28:49.273Z,101315.63
2023-08-09T10:31:47.296Z,101317.47
2023-08-09T10:34:14.551Z,101324.22
2023-08-09T10:36:41.650Z,101322.06
2023-08-09T10:39:15.728Z,101326.88
2023-08-09T10:41:59.803Z,101324.88
2023-08-09T10:44:35.965Z,101324.66
2023-08-09T10:47:05.841Z,101331.31
2023-08-09T10:50:01.855Z,101331.81
2023-08-09T10:52:36.740Z,101344.28
2023-08-09T10:55:29.504Z,101336.44
2023-08-09T10:57:58.980Z,101344.44
2023-08-09T11:00:36.413Z,101340.94
2023-08-09T11:03:05.201Z,101333.56
2023-08-09T11:05:32.556Z,101348.34
2023-08-09T11:08:09.331Z,101338.72
2023-08-09T11:10:37.911Z,101334.47
2023-08-09T11:13:08.360Z,101346.41
2023-08-09T11:15:38.095Z,101343.19
2023-08-09T11:18:06.244Z,101358.34
2023-08-09T11:20:33.337Z,101364.31
2023-08-09T11:23:02.968Z,101352.09
2023-08-09T11:25:33.199Z,101360.22
2023-08-09T11:28:03.158Z,101362.09
2023-08-09T11:30:32.538Z,101362.09
2023-08-09T11:33:04.639Z,101362.09
2023-08-09T11:35:41.362Z,101372.91
2023-08-09T11:38:11.323Z,101363.44
2023-08-09T11:40:44.969Z,101365.34
2023-08-09T11:43:14.939Z,101374.53
2023-08-09T11:45:50.823Z,101372.38
2023-08-09T11:48:31.682Z,101371.84
2023-08-09T11:51:13.449Z,101370.22
2023-08-09T11:53:42.695Z,101369.69
2023-08-09T11:56:16.930Z,101381.84
2023-08-09T11:58:46.310Z,101389.13
2023-08-09T12:01:16.084Z,101386.41
2023-08-09T12:03:46.386Z,101384.25
2023-08-09T12:06:13.530Z,101386.44
2023-08-09T12:08:40.678Z,101385.34
2023-08-09T12:11:07.870Z,101391.84
2023-08-09T12:13:35.169Z,101381.03
2023-08-09T12:16:07.451Z,101392.44
2023-08-09T12:18:36.814Z,101388.91
2023-08-09T12:21:08.103Z,101389.44
2023-08-09T12:23:37.892Z,101393.50
2023-08-09T12:26:05.392Z,101401.59
2023-08-09T12:28:32.455Z,101403.47
2023-08-09T12:31:00.145Z,101401.84
2023-08-09T12:33:28.347Z,101406.16
2023-08-09T12:35:55.424Z,101406.16
2023-08-09T12:38:25.126Z,101396.16
2023-08-09T12:40:52.197Z,101400.75
2023-08-09T12:43:19.439Z,101401.59
2023-08-09T12:45:46.593Z,101409.72
2023-08-09T12:48:13.694Z,101401.09
2023-08-09T12:50:41.225Z,101400.56
2023-08-09T12:53:09.147Z,101392.72
2023-08-09T12:55:37.904Z,101400.81
2023-08-09T12:58:05.104Z,101411.66
2023-08-09T13:00:32.456Z,101402.69
2023-08-09T13:02:59.563Z,101413.50
2023-08-09T13:05:26.733Z,101420.00
2023-08-09T13:07:53.873Z,101417.00
2023-08-09T13:10:21.980Z,101421.59
2023-08-09T13:12:50.364Z,101417.81
2023-08-09T13:15:18.344Z,101415.38
2023-08-09T13:17:45.411Z,101423.72
2023-08-09T13:20:13.601Z,101415.59
2023-08-09T13:22:41.240Z,101418.31
2023-08-09T13:25:09.930Z,101419.94
2023-08-09T13:27:37.442Z,101425.34
2023-08-09T13:30:11.273Z,101427.22
2023-08-09T13:32:38.447Z,101435.38
2023-08-09T13:35:08.170Z,101427.56
2023-08-09T13:37:35.170Z,101424.09
2023-08-09T13:40:02.141Z,101420.03
2023-08-09T13:42:29.168Z,101424.38
2023-08-09T13:44:56.652Z,101433.03
2023-08-09T13:47:24.942Z,101432.47
2023-08-09T13:49:51.903Z,101436.28
2023-08-09T13:52:18.905Z,101442.22
2023-08-09T13:54:45.846Z,101440.34
2023-08-09T13:57:13.088Z,101445.22
2023-08-09T13:59:40.130Z,101441.69
2023-08-09T14:02:08.601Z,101443.31
2023-08-09T14:04:37.523Z,101442.50
2023-08-09T14:07:05.495Z,101450.06
2023-08-09T14:09:32.848Z,101457.06
2023-08-09T14:12:00.184Z,101462.72
2023-08-09T14:14:28.414Z,101463.53
2023-08-09T14:16:55.370Z,101462.41
2023-08-09T14:19:22.456Z,101453.47
2023-08-09T14:21:50.883Z,101464.28
2023-08-09T14:24:18.560Z,101466.75
2023-08-09T14:26:46.073Z,101459.72
2023-08-09T14:29:15.494Z,101454.84
2023-08-09T14:31:42.842Z,101462.16
2023-08-09T14:34:10.184Z,101462.97
2023-08-09T14:36:37.271Z,101460.00
2023-08-09T14:39:06.939Z,101457.88
2023-08-09T14:41:33.955Z,101457.31
2023-08-09T14:44:00.975Z,101462.72
2023-08-09T14:46:28.381Z,101465.97
2023-08-09T14:49:10.133Z,101456.56
2023-08-09T14:51:39.168Z,101466.59
2023-08-09T14:54:08.293Z,101467.13
2023-08-09T14:56:35.524Z,101459.56
2023-08-09T14:59:02.760Z,101460.09
2023-08-09T15:01:31.154Z,101461.44
2023-08-09T15:03:58.111Z,101463.63
2023-08-09T15:06:25.114Z,101469.56
2023-08-09T15:08:52.060Z,101468.47
2023-08-09T15:11:20.332Z,101468.75
2023-08-09T15:13:47.726Z,101473.63
2023-08-09T15:16:14.714Z,101471.97
2023-08-09T15:18:41.812Z,101478.19
2023-08-09T15:21:08.844Z,101480.06
2023-08-09T15:23:35.874Z,101488.75
2023-08-09T15:26:03.064Z,101495.72
2023-08-09T15:28:33.166Z,101493.53
2023-08-09T15:31:00.283Z,101483.50
2023-08-09T15:33:27.376Z,101488.34
2023-08-09T15:35:54.348Z,101483.19
2023-08-09T15:38:21.363Z,101490.44
2023-08-09T15:40:48.533Z,101496.91
2023-08-09T15:43:15.611Z,101492.34
2023-08-09T15:45:43.979Z,101498.84
2023-08-09T15:48:11.033Z,101495.91
2023-08-09T15:50:38.224Z,101506.97
2023-08-09T15:53:05.511Z,101505.31
2023-08-09T15:55:32.503Z,101508.00
2023-08-09T15:57:59.814Z,101509.09
2023-08-09T16:00:27.320Z,101512.06
2023-08-09T16:02:57.389Z,101511.78
2023-08-09T16:05:24.884Z,101508.31
2023-08-09T16:07:51.875Z,101510.44
2023-08-09T16:10:19.327Z,101515.56
2023-08-09T16:12:46.384Z,101519.34
2023-08-09T16:15:13.371Z,101523.66
2023-08-09T16:17:40.438Z,101519.31
2023-08-09T16:20:10.191Z,101524.47
2023-08-09T16:22:37.405Z,101528.78
2023-08-09T16:25:05.879Z,101529.59
2023-08-09T16:27:35.698Z,101533.94
2023-08-09T16:30:02.893Z,101539.63
2023-08-09T16:32:29.876Z,101546.41
2023-08-09T16:34:56.905Z,101542.09
2023-08-09T16:37:25.328Z,101537.25
2023-08-09T16:39:55.186Z,101548.56
2023-08-09T16:42:23.136Z,101549.63
2023-08-09T16:44:50.162Z,101549.59
2023-08-09T16:47:17.157Z,101561.78
2023-08-09T16:49:44.267Z,101566.44
2023-08-09T16:52:11.306Z,101564.84
2023-08-09T16:54:39.621Z,101562.69
2023-08-09T16:57:07.008Z,101571.31
2023-08-09T16:59:34.708Z,101572.91
2023-08-09T17:02:03.717Z,101572.03
2023-08-09T17:04:31.304Z,101576.44
2023-08-09T17:06:58.374Z,101587.88
2023-08-09T17:09:25.416Z,101584.78
2023-08-09T17:11:53.706Z,101575.75
2023-08-09T17:14:21.038Z,101585.13
2023-08-09T17:16:47.984Z,101584.03
2023-08-09T17:19:15.338Z,101585.63
2023-08-09T17:21:42.350Z,101582.69
2023-08-09T17:24:09.375Z,101579.22
2023-08-09T17:26:36.715Z,101599.22
2023-08-09T17:29:05.254Z,101589.88
2023-08-09T17:31:32.338Z,101590.13
2023-08-09T17:33:59.398Z,101592.81
2023-08-09T17:36:26.376Z,101600.88
2023-08-09T17:38:53.465Z,101600.75
2023-08-09T17:41:20.426Z,101602.25
2023-08-09T17:43:47.448Z,101605.59
2023-08-09T17:46:15.817Z,101612.19
2023-08-09T17:48:42.901Z,101615.56
2023-08-09T17:51:09.927Z,101614.09
2023-08-09T17:53:36.956Z,101617.25
2023-08-09T17:56:04.710Z,101622.31
2023-08-09T17:58:31.723Z,101622.00
2023-08-09T18:00:58.696Z,101623.00
2023-08-09T18:03:27.040Z,101624.00
2023-08-09T18:05:54.033Z,101627.19
2023-08-09T18:08:21.027Z,101623.03
2023-08-09T18:10:49.700Z,101632.69
2023-08-09T18:13:18.441Z,101632.06
2023-08-09T18:15:45.482Z,101632.22
2023-08-09T18:18:12.556Z,101631.81
2023-08-09T18:20:41.028Z,101640.84
2023-08-09T18:23:08.059Z,101645.34
2023-08-09T18:25:35.111Z,101652.78
2023-08-09T18:28:02.437Z,101654.56
2023-08-09T18:30:29.466Z,101656.38
2023-08-09T18:32:56.504Z,101657.31
2023-08-09T18:35:23.487Z,101662.59
2023-08-09T18:37:51.754Z,101657.16
2023-08-09T18:40:18.810Z,101664.06
2023-08-09T18:42:47.140Z,101663.97
2023-08-09T18:45:15.996Z,101668.47
2023-08-09T18:47:43.465Z,101667.56
2023-08-09T18:50:11.993Z,101667.44
2023-08-09T18:52:40.488Z,101679.03
2023-08-09T18:55:10.274Z,101676.47
2023-08-09T18:57:37.620Z,101669.91
2023-08-09T19:00:06.240Z,101673.69
2023-08-09T19:02:34.007Z,101677.66
2023-08-09T19:05:01.089Z,101681.63
2023-08-09T19:07:28.487Z,101676.72
2023-08-09T19:09:55.501Z,101679.31
2023-08-09T19:12:23.874Z,101681.91
2023-08-09T19:14:50.984Z,101691.88
2023-08-09T19:17:18.058Z,101686.50
2023-08-09T19:19:45.082Z,101691.03
2023-08-09T19:22:12.111Z,101691.50
2023-08-09T19:24:39.185Z,101692.59
2023-08-09T19:27:06.993Z,101689.28
2023-08-09T19:29:35.447Z,101691.19
2023-08-09T19:32:02.457Z,101690.38
2023-08-09T19:34:32.779Z,101686.03
2023-08-09T19:37:00.303Z,101695.63
2023-08-09T19:39:28.701Z,101692.59
2023-08-09T19:41:55.832Z,101704.66
2023-08-09T19:44:22.891Z,101710.50
2023-08-09T19:46:51.767Z,101711.78
2023-08-09T19:49:19.234Z,101711.41
2023-08-09T19:51:47.364Z,101717.28
2023-08-09T19:54:14.848Z,101714.50
2023-08-09T19:56:43.095Z,101711.69
2023-08-09T19:59:10.242Z,101715.88
2023-08-09T20:01:37.452Z,101717.94
2023-08-09T20:04:06.594Z,101723.31
2023-08-09T20:06:37.089Z,101719.03
2023-08-09T20:09:06.116Z,101721.13
2023-08-09T20:11:33.329Z,101722.16
2023-08-09T20:14:00.461Z,101721.00
2023-08-09T20:16:29.289Z,101728.94
2023-08-09T20:18:57.637Z,101732.91
2023-08-09T20:21:25.948Z,101730.69
2023-08-09T20:23:52.974Z,101729.06
2023-08-09T20:26:19.955Z,101733.63
2023-08-09T20:28:46.959Z,101739.81
2023-08-09T20:31:14.950Z,101737.34
2023-08-09T20:33:42.186Z,101752.66
2023-08-09T20:36:10.172Z,101743.53
2023-08-09T20:38:38.558Z,101750.19
2023-08-09T20:41:05.509Z,101745.28
2023-08-09T20:43:32.583Z,101748.44
2023-08-09T20:46:00.464Z,101754.41
2023-08-09T20:48:28.848Z,101756.00
2023-08-09T20:50:57.112Z,101758.50
2023-08-09T20:53:24.353Z,101760.59
2023-08-09T20:55:53.541Z,101758.59
2023-08-09T20:58:20.525Z,101760.69
2023-08-09T21:00:48.573Z,101766.28
2023-08-09T21:03:16.368Z,101769.66
2023-08-09T21:05:43.415Z,101765.81
2023-08-09T21:08:10.478Z,101775.34
2023-08-09T21:10:37.450Z,101769.41
2023-08-09T21:13:05.881Z,101770.09
2023-08-09T21:15:34.193Z,101768.09
2023-08-09T21:18:01.741Z,101779.28
2023-08-09T21:20:28.817Z,101771.47
2023-08-09T21:22:57.708Z,101776.03
2023-08-09T21:27:54.929Z,101769.63
2023-08-09T21:30:23.244Z,101777.66
2023-08-09T21:32:50.291Z,101773.09
2023-08-09T21:35:17.615Z,101773.91
2023-08-09T21:37:44.605Z,101773.91
2023-08-09T21:40:12.709Z,101773.91
2023-08-09T21:42:39.719Z,101780.94
2023-08-09T21:45:09.308Z,101784.22
2023-08-09T21:47:38.624Z,101782.56
2023-08-09T21:50:07.285Z,101780.56
2023-08-09T21:52:34.488Z,101790.94
2023-08-09T21:55:01.501Z,101791.03
2023-08-09T21:57:28.479Z,101791.91
2023-08-09T21:59:55.621Z,101793.63
2023-08-09T22:02:22.642Z,101790.84
2023-08-09T22:04:51.070Z,101800.59
2023-08-09T22:07:18.054Z,101802.53
2023-08-09T22:09:45.208Z,101801.81
2023-08-09T22:12:12.386Z,101803.50
2023-08-09T22:14:39.371Z,101795.91
2023-08-09T22:17:06.558Z,101802.34
2023-08-09T22:19:33.533Z,101801.75
2023-08-09T22:24:31.958Z,101808.38
2023-08-09T22:26:58.954Z,101807.78
2023-08-09T22:29:25.993Z,101814.41
2023-08-09T22:31:53.710Z,101814.84
2023-08-09T22:34:21.307Z,101815.28
2023-08-09T22:36:48.290Z,101812.84
2023-08-09T22:39:16.587Z,101825.19
2023-08-09T22:41:44.369Z,101816.94
2023-08-09T22:44:11.445Z,101819.16
2023-08-09T22:46:38.461Z,101822.81
2023-08-09T22:49:05.679Z,101812.22
2023-08-09T22:51:32.630Z,101813.41
2023-08-09T22:53:59.593Z,101814.63
2023-08-09T22:56:28.986Z,101822.81
2023-08-09T22:58:55.946Z,101819.91
2023-08-09T23:01:23.379Z,101819.91
2023-08-09T23:03:50.438Z,101817.00
2023-08-09T23:06:17.452Z,101828.53
2023-08-09T23:08:44.433Z,101824.59
2023-08-09T23:11:11.382Z,101829.72
2023-08-09T23:13:40.672Z,101829.72
2023-08-09T23:16:07.651Z,101835.09
2023-08-09T23:18:38.941Z,101828.09
2023-08-09T23:21:06.404Z,101831.81
2023-08-09T23:23:33.732Z,101830.19
2023-08-09T23:26:04.028Z,101837.41
2023-08-09T23:28:31.033Z,101843.00
2023-08-09T23:31:00.880Z,101843.47
2023-08-09T23:33:28.157Z,101848.00
2023-08-09T23:35:55.752Z,101845.56
2023-08-09T23:38:23.687Z,101846.59
2023-08-09T23:40:50.700Z,101848.09
2023-08-09T23:43:18.155Z,101851.19
2023-08-09T23:45:45.194Z,101847.78
2023-08-09T23:48:13.954Z,101846.63
2023-08-09T23:50:42.367Z,101853.72
2023-08-09T23:53:10.186Z,101854.16
2023-08-09T23:55:37.470Z,101859.91
2023-08-09T23:58:04.484Z,101861.41
